Terminal Aerodrome Forecast
Issued by NWS Charleston, WV

Current Version | Previous Version | Graphics & Text | Print | Product List | Glossary On
Versions: 1 2 3 4 5 6 7 8 9 10 11 12 13 14 15 16 17 18 19 20 21 22 23 24
000
FTUS41 KRLX 282300
TAFPKB
TAF
KPKB 282325Z 2900/2924 00000KT P6SM SCT100 BKN150
     FM290500 00000KT 6SM BR BKN200
     FM290700 00000KT 3SM BR BKN200
     FM290800 00000KT 1/2SM FG VV001
     FM291200 00000KT 4SM BR SCT002
     FM291300 00000KT P6SM SCT050=

USA.gov is the U.S. government's official web portal to all federal, state and local government web resources and services.